createdAt,value
2023-04-30T00:00:19.626Z,6.87
2023-04-30T00:02:45.944Z,6.89
2023-04-30T00:05:12.272Z,6.89
2023-04-30T00:07:38.577Z,6.86
2023-04-30T00:10:05.000Z,6.76
2023-04-30T00:12:31.108Z,6.70
2023-04-30T00:14:57.372Z,6.75
2023-04-30T00:17:23.525Z,6.84
2023-04-30T00:19:49.678Z,6.84
2023-04-30T00:22:15.947Z,6.80
2023-04-30T00:24:42.051Z,6.68
2023-04-30T00:27:08.201Z,6.71
2023-04-30T00:29:34.397Z,6.71
2023-04-30T00:32:00.517Z,6.75
2023-04-30T00:34:26.798Z,6.68
2023-04-30T00:36:52.938Z,6.87
2023-04-30T00:39:19.083Z,6.87
2023-04-30T00:41:45.224Z,6.74
2023-04-30T00:44:11.473Z,6.91
2023-04-30T00:46:37.615Z,6.90
2023-04-30T00:49:03.735Z,6.97
2023-04-30T00:51:29.833Z,7.07
2023-04-30T00:53:55.959Z,7.30
2023-04-30T00:56:23.272Z,7.18
2023-04-30T00:58:49.509Z,7.24
2023-04-30T01:01:15.797Z,7.36
2023-04-30T01:03:41.943Z,7.35
2023-04-30T01:06:08.308Z,7.33
2023-04-30T01:08:34.410Z,7.36
2023-04-30T01:11:00.532Z,7.27
2023-04-30T01:13:26.670Z,7.37
2023-04-30T01:15:52.838Z,7.37
2023-04-30T01:18:19.112Z,7.44
2023-04-30T01:20:45.301Z,7.32
2023-04-30T01:23:11.413Z,7.11
2023-04-30T01:25:37.830Z,7.26
2023-04-30T01:28:04.266Z,7.32
2023-04-30T01:30:30.501Z,7.41
2023-04-30T01:32:56.660Z,7.31
2023-04-30T01:35:23.346Z,7.40
2023-04-30T01:37:49.485Z,7.63
2023-04-30T01:40:15.642Z,7.71
2023-04-30T01:42:42.059Z,7.60
2023-04-30T01:45:08.170Z,7.56
2023-04-30T01:47:34.337Z,7.46
2023-04-30T01:50:00.782Z,7.31
2023-04-30T01:52:27.005Z,7.55
2023-04-30T01:54:53.501Z,7.61
2023-04-30T01:57:19.705Z,7.76
2023-04-30T01:59:46.227Z,7.75
2023-04-30T02:02:12.500Z,7.49
2023-04-30T02:04:39.014Z,7.52
2023-04-30T02:07:05.104Z,7.50
2023-04-30T02:09:31.404Z,7.43
2023-04-30T02:11:57.550Z,7.43
2023-04-30T02:14:23.667Z,7.44
2023-04-30T02:16:49.988Z,7.31
2023-04-30T02:19:16.563Z,7.13
2023-04-30T02:21:42.786Z,7.05
2023-04-30T02:24:09.002Z,7.14
2023-04-30T02:26:35.110Z,6.89
2023-04-30T02:29:01.221Z,6.88
2023-04-30T02:31:27.468Z,6.86
2023-04-30T02:33:53.662Z,7.01
2023-04-30T02:36:19.916Z,6.91
2023-04-30T02:38:46.117Z,6.66
2023-04-30T02:41:12.358Z,6.63
2023-04-30T02:43:38.541Z,6.57
2023-04-30T02:46:04.776Z,6.48
2023-04-30T02:48:31.027Z,6.46
2023-04-30T02:50:57.326Z,6.30
2023-04-30T02:53:23.589Z,6.12
2023-04-30T02:55:49.729Z,6.02
2023-04-30T02:58:15.847Z,5.95
2023-04-30T03:00:41.980Z,5.89
2023-04-30T03:03:08.571Z,5.73
2023-04-30T03:05:34.780Z,5.91
2023-04-30T03:08:01.088Z,6.00
2023-04-30T03:10:27.178Z,5.80
2023-04-30T03:12:53.625Z,5.97
2023-04-30T03:15:20.045Z,5.68
2023-04-30T03:17:46.453Z,5.73
2023-04-30T03:20:12.717Z,5.66
2023-04-30T03:22:38.960Z,5.75
2023-04-30T03:25:05.189Z,5.58
2023-04-30T03:27:31.632Z,5.55
2023-04-30T03:29:57.769Z,5.51
2023-04-30T03:32:23.954Z,5.61
2023-04-30T03:34:50.456Z,5.69
2023-04-30T03:37:16.619Z,5.71
2023-04-30T03:39:42.719Z,5.64
2023-04-30T03:42:08.876Z,5.79
2023-04-30T03:44:35.303Z,5.54
2023-04-30T03:47:01.562Z,5.47
2023-04-30T03:49:27.718Z,5.47
2023-04-30T03:51:53.916Z,5.49
2023-04-30T03:54:20.145Z,5.33
2023-04-30T03:56:46.591Z,5.39
2023-04-30T03:59:12.768Z,5.47
2023-04-30T04:01:39.001Z,5.41
2023-04-30T04:04:05.246Z,5.33
2023-04-30T04:06:31.865Z,5.23
2023-04-30T04:08:58.164Z,5.01
2023-04-30T04:11:24.261Z,5.13
2023-04-30T04:13:50.394Z,5.24
2023-04-30T04:16:16.702Z,5.19
2023-04-30T04:18:42.896Z,5.14
2023-04-30T04:21:09.062Z,4.92
2023-04-30T04:23:35.202Z,4.77
2023-04-30T04:26:01.373Z,4.95
2023-04-30T04:28:27.834Z,5.00
2023-04-30T04:30:54.075Z,5.00
2023-04-30T04:33:20.221Z,4.91
2023-04-30T04:35:46.353Z,4.90
2023-04-30T04:38:12.796Z,4.92
2023-04-30T04:40:38.913Z,4.86
2023-04-30T04:43:05.030Z,4.92
2023-04-30T04:45:31.142Z,4.97
2023-04-30T04:47:57.308Z,4.94
2023-04-30T04:50:23.446Z,4.94
2023-04-30T04:52:49.570Z,5.03
2023-04-30T04:55:15.700Z,5.02
2023-04-30T04:57:41.825Z,5.06
2023-04-30T05:00:07.935Z,5.24
2023-04-30T05:02:34.146Z,5.20
2023-04-30T05:05:00.317Z,5.28
2023-04-30T05:07:26.447Z,5.24
2023-04-30T05:09:52.840Z,5.39
2023-04-30T05:12:19.151Z,5.34
2023-04-30T05:14:45.256Z,5.37
2023-04-30T05:17:11.360Z,5.38
2023-04-30T05:19:37.473Z,5.29
2023-04-30T05:22:03.558Z,5.40
2023-04-30T05:24:29.661Z,5.42
2023-04-30T05:26:55.782Z,5.62
2023-04-30T05:29:21.946Z,5.86
2023-04-30T05:31:48.103Z,5.99
2023-04-30T05:34:14.241Z,6.16
2023-04-30T05:36:40.605Z,6.57
2023-04-30T05:39:07.705Z,7.08
2023-04-30T05:41:33.854Z,6.94
2023-04-30T05:43:59.975Z,6.66
2023-04-30T05:46:26.123Z,6.69
2023-04-30T05:48:52.254Z,6.93
2023-04-30T05:51:18.399Z,7.23
2023-04-30T05:53:44.498Z,7.38
2023-04-30T05:56:10.923Z,7.28
2023-04-30T05:58:37.235Z,7.34
2023-04-30T06:01:03.345Z,7.43
2023-04-30T06:03:29.537Z,7.49
2023-04-30T06:05:55.669Z,7.60
2023-04-30T06:08:21.821Z,7.57
2023-04-30T06:10:47.966Z,8.08
2023-04-30T06:13:14.097Z,7.99
2023-04-30T06:15:40.185Z,7.86
2023-04-30T06:18:06.404Z,7.69
2023-04-30T06:20:32.546Z,7.74
2023-04-30T06:22:58.651Z,7.75
2023-04-30T06:25:24.756Z,7.70
2023-04-30T06:27:50.989Z,7.80
2023-04-30T06:30:17.249Z,7.79
2023-04-30T06:32:43.687Z,7.90
2023-04-30T06:35:09.839Z,7.96
2023-04-30T06:37:35.930Z,8.44
2023-04-30T06:40:02.032Z,8.63
2023-04-30T06:42:28.233Z,8.28
2023-04-30T06:44:54.372Z,8.14
2023-04-30T06:47:20.662Z,8.40
2023-04-30T06:49:46.845Z,8.57
2023-04-30T06:52:12.949Z,8.86
2023-04-30T06:54:39.066Z,8.91
2023-04-30T06:57:05.544Z,9.00
2023-04-30T06:59:31.645Z,9.25
2023-04-30T07:01:57.866Z,9.58
2023-04-30T07:04:24.047Z,9.87
2023-04-30T07:06:50.266Z,10.06
2023-04-30T07:09:16.522Z,10.00
2023-04-30T07:11:42.604Z,9.91
2023-04-30T07:14:08.736Z,9.99
2023-04-30T07:16:34.946Z,9.85
2023-04-30T07:19:01.184Z,9.69
2023-04-30T07:21:27.281Z,9.99
2023-04-30T07:23:53.398Z,9.87
2023-04-30T07:26:19.522Z,9.66
2023-04-30T07:28:45.622Z,9.99
2023-04-30T07:31:11.778Z,10.01
2023-04-30T07:33:37.915Z,9.66
2023-04-30T07:36:04.442Z,9.65
2023-04-30T07:38:30.565Z,10.11
2023-04-30T07:40:56.662Z,10.35
2023-04-30T07:43:22.829Z,10.71
2023-04-30T07:45:48.972Z,11.00
2023-04-30T07:48:15.104Z,11.35
2023-04-30T07:50:41.201Z,11.11
2023-04-30T07:53:07.339Z,11.33
2023-04-30T07:55:33.450Z,11.98
2023-04-30T07:57:59.552Z,12.50
2023-04-30T08:00:25.640Z,12.77
2023-04-30T08:02:52.088Z,13.16
2023-04-30T08:05:18.281Z,13.71
2023-04-30T08:07:44.405Z,13.92
2023-04-30T08:10:10.663Z,13.90
2023-04-30T08:12:36.766Z,13.70
2023-04-30T08:15:03.022Z,13.20
2023-04-30T08:17:29.195Z,13.28
2023-04-30T08:19:55.496Z,13.65
2023-04-30T08:22:21.883Z,13.36
2023-04-30T08:24:47.981Z,14.45
2023-04-30T08:27:14.074Z,13.65
2023-04-30T08:29:40.202Z,13.95
2023-04-30T08:32:06.380Z,13.60
2023-04-30T08:34:32.536Z,13.00
2023-04-30T08:36:58.662Z,13.00
2023-04-30T08:39:24.749Z,13.93
2023-04-30T08:41:50.904Z,13.96
2023-04-30T08:44:17.021Z,13.69
2023-04-30T08:46:43.139Z,12.91
2023-04-30T08:49:09.277Z,13.31
2023-04-30T08:51:35.393Z,13.79
2023-04-30T08:54:01.618Z,13.80
2023-04-30T08:56:27.831Z,13.00
2023-04-30T08:58:53.936Z,12.97
2023-04-30T09:01:20.079Z,12.74
2023-04-30T09:03:46.367Z,13.14
2023-04-30T09:06:12.606Z,13.04
2023-04-30T09:08:39.040Z,12.47
2023-04-30T09:11:05.151Z,12.24
2023-04-30T09:13:31.263Z,12.36
2023-04-30T09:15:57.384Z,12.32
2023-04-30T09:18:23.497Z,11.89
2023-04-30T09:20:49.612Z,11.61
2023-04-30T09:23:15.713Z,11.15
2023-04-30T09:25:42.156Z,11.40
2023-04-30T09:28:08.269Z,11.09
2023-04-30T09:30:34.352Z,11.21
2023-04-30T09:33:00.512Z,11.26
2023-04-30T09:35:26.650Z,11.45
2023-04-30T09:37:52.730Z,10.73
2023-04-30T09:40:18.844Z,11.07
2023-04-30T09:42:44.955Z,10.92
2023-04-30T09:45:11.059Z,11.04
2023-04-30T09:47:37.215Z,10.39
2023-04-30T09:50:03.388Z,11.06
2023-04-30T09:52:29.479Z,11.37
2023-04-30T09:54:55.602Z,11.60
2023-04-30T09:57:21.713Z,11.90
2023-04-30T09:59:47.831Z,12.01
2023-04-30T10:02:14.151Z,11.67
2023-04-30T10:04:40.271Z,11.04
2023-04-30T10:07:06.395Z,12.22
2023-04-30T10:09:32.514Z,12.31
2023-04-30T10:11:58.644Z,12.44
2023-04-30T10:14:24.759Z,11.85
2023-04-30T10:16:50.901Z,11.91
2023-04-30T10:19:17.083Z,11.73
2023-04-30T10:21:43.304Z,12.23
2023-04-30T10:24:09.415Z,11.81
2023-04-30T10:26:35.510Z,12.28
2023-04-30T10:29:01.646Z,12.46
2023-04-30T10:31:27.794Z,11.97
2023-04-30T10:33:53.984Z,12.52
2023-04-30T10:36:20.120Z,11.69
2023-04-30T10:38:48.413Z,11.76
2023-04-30T10:41:14.858Z,12.01
2023-04-30T10:43:41.378Z,11.89
2023-04-30T10:46:07.501Z,12.62
2023-04-30T10:48:33.610Z,12.28
2023-04-30T10:50:59.822Z,12.54
2023-04-30T10:53:25.972Z,12.30
2023-04-30T10:55:52.109Z,13.11
2023-04-30T10:58:18.228Z,12.98
2023-04-30T11:00:44.931Z,13.26
2023-04-30T11:03:11.368Z,13.56
2023-04-30T11:05:37.656Z,13.52
2023-04-30T11:08:03.783Z,13.61
2023-04-30T11:10:30.022Z,14.68
2023-04-30T11:12:56.160Z,14.40
2023-04-30T11:15:22.312Z,15.39
2023-04-30T11:17:48.556Z,14.78
2023-04-30T11:20:14.737Z,13.84
2023-04-30T11:22:40.840Z,13.54
2023-04-30T11:25:06.979Z,13.92
2023-04-30T11:27:33.070Z,13.73
2023-04-30T11:29:59.445Z,13.80
2023-04-30T11:32:25.709Z,13.54
2023-04-30T11:34:51.865Z,12.99
2023-04-30T11:37:17.990Z,13.92
2023-04-30T11:39:44.111Z,14.28
2023-04-30T11:42:10.259Z,14.57
2023-04-30T11:44:36.368Z,13.38
2023-04-30T11:47:02.599Z,13.45
2023-04-30T11:49:28.697Z,13.21
2023-04-30T11:51:54.804Z,13.43
2023-04-30T11:54:20.934Z,13.11
2023-04-30T11:56:47.061Z,13.05
2023-04-30T11:59:13.179Z,12.61
2023-04-30T12:01:39.299Z,13.39
2023-04-30T12:04:05.583Z,12.91
2023-04-30T12:06:31.841Z,12.79
2023-04-30T12:08:58.085Z,12.67
2023-04-30T12:11:24.517Z,13.06
2023-04-30T12:13:50.619Z,12.99
2023-04-30T12:16:16.765Z,12.58
2023-04-30T12:18:43.020Z,12.53
2023-04-30T12:21:09.156Z,12.52
2023-04-30T12:23:35.258Z,12.82
2023-04-30T12:26:01.354Z,12.85
2023-04-30T12:28:27.508Z,12.67
2023-04-30T12:30:53.592Z,12.70
2023-04-30T12:33:19.759Z,12.86
2023-04-30T12:35:45.975Z,12.96
2023-04-30T12:38:12.087Z,12.87
2023-04-30T12:40:38.217Z,12.86
2023-04-30T12:43:04.332Z,12.83
2023-04-30T12:45:30.423Z,12.91
2023-04-30T12:47:56.555Z,12.40
2023-04-30T12:50:22.713Z,12.56
2023-04-30T12:52:48.836Z,12.34
2023-04-30T12:55:14.946Z,12.35
2023-04-30T12:57:41.042Z,12.14
2023-04-30T13:00:07.231Z,12.23
2023-04-30T13:02:33.474Z,12.22
2023-04-30T13:04:59.669Z,12.14
2023-04-30T13:07:25.764Z,12.11
2023-04-30T13:09:51.863Z,12.33
2023-04-30T13:12:17.965Z,12.48
2023-04-30T13:14:44.047Z,12.36
2023-04-30T13:17:10.194Z,12.47
2023-04-30T13:19:37.399Z,12.50
2023-04-30T13:22:03.506Z,12.65
2023-04-30T13:24:29.604Z,12.81
2023-04-30T13:26:55.709Z,13.04
2023-04-30T13:29:21.793Z,13.24
2023-04-30T13:31:48.062Z,13.27
2023-04-30T13:34:14.246Z,13.71
2023-04-30T13:36:40.349Z,13.43
2023-04-30T13:39:06.473Z,13.83
2023-04-30T13:41:32.572Z,13.60
2023-04-30T13:43:58.691Z,13.58
2023-04-30T13:46:24.801Z,13.75
2023-04-30T13:48:50.905Z,14.12
2023-04-30T13:51:17.134Z,13.71
2023-04-30T13:53:43.289Z,13.95
2023-04-30T13:56:09.402Z,13.87
2023-04-30T13:58:35.719Z,14.29
2023-04-30T14:01:01.897Z,14.58
2023-04-30T14:03:28.156Z,14.74
2023-04-30T14:05:54.302Z,15.03
2023-04-30T14:08:22.652Z,15.25
2023-04-30T14:10:49.489Z,15.03
2023-04-30T14:13:15.586Z,15.32
2023-04-30T14:15:41.713Z,15.32
2023-04-30T14:18:07.903Z,15.37
2023-04-30T14:20:34.039Z,15.67
2023-04-30T14:23:02.653Z,15.59
2023-04-30T14:25:29.279Z,16.17
2023-04-30T14:27:55.712Z,16.14
2023-04-30T14:30:21.829Z,16.07
2023-04-30T14:32:47.942Z,16.28
2023-04-30T14:35:14.213Z,14.10
2023-04-30T14:37:40.387Z,12.01
2023-04-30T14:40:06.527Z,12.35
2023-04-30T14:42:32.649Z,11.28
2023-04-30T14:44:58.848Z,10.98
2023-04-30T14:47:24.974Z,11.06
2023-04-30T14:49:51.114Z,11.31
2023-04-30T14:52:17.347Z,11.25
2023-04-30T14:54:43.462Z,10.79
2023-04-30T14:57:09.565Z,10.79
2023-04-30T14:59:35.672Z,11.21
2023-04-30T15:02:01.810Z,11.20
2023-04-30T15:04:27.943Z,11.30
2023-04-30T15:06:54.029Z,11.68
2023-04-30T15:09:20.163Z,12.04
2023-04-30T15:11:46.272Z,11.80
2023-04-30T15:14:12.388Z,11.57
2023-04-30T15:16:38.505Z,11.89
2023-04-30T15:19:04.612Z,11.39
2023-04-30T15:21:30.696Z,11.42
2023-04-30T15:23:56.818Z,11.35
2023-04-30T15:26:23.013Z,11.47
2023-04-30T15:28:49.195Z,11.60
2023-04-30T15:31:15.348Z,11.50
2023-04-30T15:33:41.528Z,10.61
2023-04-30T15:36:07.986Z,10.96
2023-04-30T15:38:34.077Z,10.59
2023-04-30T15:41:00.215Z,10.34
2023-04-30T15:43:26.290Z,9.50
2023-04-30T15:45:52.608Z,9.26
2023-04-30T15:48:19.055Z,9.12
2023-04-30T15:50:45.166Z,8.98
2023-04-30T15:53:11.265Z,9.05
2023-04-30T15:55:37.684Z,9.02
2023-04-30T15:58:03.791Z,8.57
2023-04-30T16:00:29.910Z,8.81
2023-04-30T16:02:56.160Z,8.94
2023-04-30T16:05:22.407Z,8.94
2023-04-30T16:07:48.559Z,8.75
2023-04-30T16:10:14.729Z,8.36
2023-04-30T16:12:40.872Z,8.38
2023-04-30T16:15:07.270Z,8.21
2023-04-30T16:17:33.480Z,8.57
2023-04-30T16:19:59.672Z,8.62
2023-04-30T16:22:25.888Z,8.86
2023-04-30T16:24:52.005Z,8.58
2023-04-30T16:27:18.429Z,8.24
2023-04-30T16:29:44.850Z,7.96
2023-04-30T16:32:11.198Z,8.03
2023-04-30T16:34:37.418Z,8.32
2023-04-30T16:37:03.533Z,8.20
2023-04-30T16:39:29.649Z,7.78
2023-04-30T16:41:55.767Z,8.65
2023-04-30T16:44:21.847Z,8.93
2023-04-30T16:46:48.197Z,9.10
2023-04-30T16:49:14.332Z,8.60
2023-04-30T16:51:40.459Z,8.22
2023-04-30T16:54:06.581Z,8.12
2023-04-30T16:56:32.683Z,8.70
2023-04-30T16:58:58.934Z,9.07
2023-04-30T17:01:25.265Z,9.57
2023-04-30T17:03:51.604Z,9.10
2023-04-30T17:06:17.802Z,8.75
2023-04-30T17:08:43.932Z,8.00
2023-04-30T17:11:10.019Z,7.98
2023-04-30T17:13:36.143Z,8.47
2023-04-30T17:16:02.479Z,8.26
2023-04-30T17:18:28.673Z,8.84
2023-04-30T17:20:54.802Z,8.52
2023-04-30T17:23:20.892Z,8.38
2023-04-30T17:25:46.981Z,8.77
2023-04-30T17:28:13.120Z,8.45
2023-04-30T17:30:39.218Z,8.49
2023-04-30T17:33:05.474Z,8.54
2023-04-30T17:35:31.659Z,8.84
2023-04-30T17:37:57.800Z,8.52
2023-04-30T17:40:24.253Z,8.80
2023-04-30T17:42:50.388Z,9.06
2023-04-30T17:45:16.588Z,8.49
2023-04-30T17:47:42.737Z,8.64
2023-04-30T17:50:08.860Z,7.97
2023-04-30T17:52:34.958Z,8.22
2023-04-30T17:55:01.188Z,8.70
2023-04-30T17:57:27.328Z,8.90
2023-04-30T17:59:53.499Z,9.10
2023-04-30T18:02:19.723Z,9.42
2023-04-30T18:04:45.930Z,9.54
2023-04-30T18:07:12.037Z,9.63
2023-04-30T18:09:38.192Z,9.81
2023-04-30T18:12:04.474Z,9.96
2023-04-30T18:14:30.575Z,10.06
2023-04-30T18:16:56.760Z,9.64
2023-04-30T18:19:22.878Z,9.62
2023-04-30T18:21:48.971Z,9.53
2023-04-30T18:24:15.083Z,9.85
2023-04-30T18:26:41.285Z,9.79
2023-04-30T18:29:07.386Z,9.59
2023-04-30T18:31:33.531Z,9.76
2023-04-30T18:33:59.681Z,9.75
2023-04-30T18:36:25.772Z,9.80
2023-04-30T18:38:51.870Z,9.83
2023-04-30T18:41:18.112Z,9.83
2023-04-30T18:43:44.230Z,9.76
2023-04-30T18:46:10.791Z,9.56
2023-04-30T18:48:36.952Z,9.43
2023-04-30T18:51:03.071Z,9.31
2023-04-30T18:53:29.193Z,9.35
2023-04-30T18:55:55.318Z,9.20
2023-04-30T18:58:21.418Z,9.34
2023-04-30T19:00:47.583Z,9.25
2023-04-30T19:03:13.816Z,9.02
2023-04-30T19:05:40.006Z,9.12
2023-04-30T19:08:06.123Z,9.06
2023-04-30T19:10:32.240Z,8.97
2023-04-30T19:12:58.334Z,8.98
2023-04-30T19:15:24.453Z,8.93
2023-04-30T19:17:50.623Z,8.81
2023-04-30T19:20:16.744Z,8.76
2023-04-30T19:22:42.848Z,8.64
2023-04-30T19:25:08.977Z,8.57
2023-04-30T19:27:35.095Z,8.50
2023-04-30T19:30:01.208Z,8.61
2023-04-30T19:32:27.407Z,8.67
2023-04-30T19:34:53.605Z,8.76
2023-04-30T19:37:19.710Z,8.81
2023-04-30T19:39:45.818Z,8.81
2023-04-30T19:42:11.927Z,8.77
2023-04-30T19:44:38.049Z,8.77
2023-04-30T19:47:04.206Z,8.78
2023-04-30T19:49:30.312Z,8.78
2023-04-30T19:51:56.432Z,8.70
2023-04-30T19:54:22.538Z,8.66
2023-04-30T19:56:48.665Z,8.55
2023-04-30T19:59:14.820Z,8.39
2023-04-30T20:01:41.042Z,8.47
2023-04-30T20:04:07.566Z,8.38
2023-04-30T20:06:33.819Z,8.29
2023-04-30T20:08:59.983Z,8.33
2023-04-30T20:11:26.089Z,8.41
2023-04-30T20:13:52.174Z,8.33
2023-04-30T20:16:18.284Z,8.30
2023-04-30T20:18:44.401Z,8.26
2023-04-30T20:21:10.516Z,8.18
2023-04-30T20:23:36.627Z,8.22
2023-04-30T20:26:02.770Z,8.28
2023-04-30T20:28:28.882Z,8.28
2023-04-30T20:30:55.010Z,8.31
2023-04-30T20:33:21.109Z,8.23
2023-04-30T20:35:47.237Z,8.16
2023-04-30T20:38:13.381Z,8.11
2023-04-30T20:40:39.525Z,8.09
2023-04-30T20:43:05.660Z,8.25
2023-04-30T20:45:31.892Z,8.29
2023-04-30T20:47:58.063Z,8.25
2023-04-30T20:50:24.354Z,8.34
2023-04-30T20:52:50.826Z,8.20
2023-04-30T20:55:16.929Z,8.21
2023-04-30T20:57:43.060Z,8.23
2023-04-30T21:00:09.183Z,8.10
2023-04-30T21:02:35.330Z,8.02
2023-04-30T21:05:01.542Z,8.06
2023-04-30T21:07:27.776Z,7.99
2023-04-30T21:09:54.022Z,8.10
2023-04-30T21:12:20.260Z,8.41
2023-04-30T21:14:46.361Z,8.32
2023-04-30T21:17:12.474Z,8.12
2023-04-30T21:19:38.623Z,8.34
2023-04-30T21:22:04.742Z,8.22
2023-04-30T21:24:30.870Z,8.17
2023-04-30T21:26:57.017Z,8.16
2023-04-30T21:29:23.119Z,8.25
2023-04-30T21:31:49.207Z,8.22
2023-04-30T21:34:15.354Z,8.39
2023-04-30T21:36:41.454Z,8.41
2023-04-30T21:39:08.661Z,8.33
2023-04-30T21:41:34.871Z,8.43
2023-04-30T21:44:00.970Z,8.37
2023-04-30T21:46:27.186Z,8.56
2023-04-30T21:48:53.437Z,8.53
2023-04-30T21:51:19.521Z,8.38
2023-04-30T21:53:45.708Z,8.18
2023-04-30T21:56:11.900Z,8.18
2023-04-30T21:58:38.031Z,8.14
2023-04-30T22:01:04.435Z,8.06
2023-04-30T22:03:30.829Z,8.09
2023-04-30T22:05:57.054Z,8.14
2023-04-30T22:08:23.232Z,8.29
2023-04-30T22:10:49.315Z,8.13
2023-04-30T22:13:15.434Z,8.13
2023-04-30T22:18:13.017Z,7.95
2023-04-30T22:20:39.117Z,8.01
2023-04-30T22:23:05.202Z,8.04
2023-04-30T22:25:31.318Z,8.12
2023-04-30T22:27:57.770Z,7.93
2023-04-30T22:30:23.872Z,7.90
2023-04-30T22:32:49.986Z,7.98
2023-04-30T22:35:16.188Z,7.91
2023-04-30T22:37:42.314Z,7.87
2023-04-30T22:40:08.436Z,7.95
2023-04-30T22:42:34.549Z,7.93
2023-04-30T22:45:00.667Z,7.88
2023-04-30T22:47:26.826Z,7.77
2023-04-30T22:49:53.088Z,7.80
2023-04-30T22:52:19.202Z,7.68
2023-04-30T22:54:45.296Z,7.77
2023-04-30T22:57:11.384Z,7.86
2023-04-30T22:59:37.474Z,7.82
2023-04-30T23:02:03.604Z,7.92
2023-04-30T23:04:29.734Z,7.93
2023-04-30T23:06:55.881Z,7.94
2023-04-30T23:09:22.175Z,7.84
2023-04-30T23:11:48.401Z,8.00
2023-04-30T23:14:14.565Z,7.95
2023-04-30T23:16:40.722Z,8.06
2023-04-30T23:19:06.816Z,7.96
2023-04-30T23:21:32.900Z,8.02
2023-04-30T23:23:59.002Z,7.91
2023-04-30T23:26:25.095Z,7.91
2023-04-30T23:28:51.229Z,7.82
2023-04-30T23:31:17.316Z,8.00
2023-04-30T23:33:43.445Z,7.93
2023-04-30T23:36:09.531Z,7.81
2023-04-30T23:38:35.647Z,7.90
2023-04-30T23:41:01.780Z,7.83
2023-04-30T23:43:27.895Z,7.79
2023-04-30T23:45:54.044Z,7.90
2023-04-30T23:48:20.219Z,7.81
2023-04-30T23:50:46.328Z,7.85
2023-04-30T23:53:12.448Z,7.82
2023-04-30T23:55:38.562Z,7.84
2023-04-30T23:58:04.639Z,7.92
